This is the latest recevied weather packets stored in our database for station/object AI5BL. If no packets are shown the sender has not sent any weather packets the latest 10 day(s).
| Time | Temp. | Humidity | Pressure | Rain* | Wind** | Luminosity | Snow |
|---|---|---|---|---|---|---|---|
| 1777717995 | 11.67° C | 99% | 1015.7 hPa | 0 mm | - | 0 W/m² | - |
| 1777717693 | 11.67° C | 99% | 1015.6 hPa | 0 mm | - | 0 W/m² | - |
| 1777717388 | 11.67° C | 99% | 1015.6 hPa | 0 mm | - | 0 W/m² | - |
| 1777717087 | 11.67° C | 99% | 1015.7 hPa | 0 mm | - | 0 W/m² | - |
| 1777716784 | 11.67° C | 99% | 1015.3 hPa | 0 mm | - | 0 W/m² | - |
| 1777716482 | 11.67° C | 99% | 1015.3 hPa | 1.78 mm | - | 0 W/m² | - |
| 1777716181 | 11.67° C | 99% | 1015.4 hPa | 1.78 mm | - | 0 W/m² | - |
| 1777715879 | 11.67° C | 99% | 1015 hPa | 21.08 mm | - | 0 W/m² | - |
| 1777715576 | 11.67° C | 99% | 1015.4 hPa | 21.08 mm | - | 0 W/m² | - |
| 1777713762 | 11.67° C | 99% | 1016.4 hPa | 0 mm | - | 0 W/m² | - |
| 1777713459 | 11.67° C | 99% | 1016.6 hPa | 0 mm | - | 0 W/m² | - |
| 1777713155 | 11.67° C | 99% | 1016.5 hPa | 0 mm | - | 0 W/m² | - |
| 1777712852 | 11.67° C | 99% | 1016.2 hPa | 0 mm | - | 0 W/m² | - |
| 1777712549 | 11.67° C | 99% | 1016.1 hPa | 0 mm | - | 0 W/m² | - |
| 1777712246 | 11.67° C | 99% | 1015.9 hPa | 0 mm | - | 0 W/m² | - |
| 1777711942 | 11.67° C | 99% | 1015.4 hPa | 0 mm | - | 0 W/m² | - |
| 1777711640 | 11.67° C | 99% | 1015.8 hPa | 0 mm | - | 0 W/m² | - |
| 1777711340 | 11.67° C | 99% | 1015.9 hPa | 0 mm | - | 0 W/m² | - |
| 1777711036 | 11.67° C | 99% | 1016.2 hPa | 0 mm | - | 0 W/m² | - |
| 1777710734 | 11.67° C | 99% | 1016.1 hPa | 0 mm | - | 0 W/m² | - |
| 1777710431 | 11.67° C | 99% | 1015.9 hPa | 1.78 mm | - | 0 W/m² | - |
| 1777710127 | 11.67° C | 99% | 1015.7 hPa | 1.78 mm | - | 0 W/m² | - |
| 1777709825 | 11.67° C | 99% | 1015.2 hPa | 0 mm | - | 0 W/m² | - |
| 1777709522 | 11.11° C | 99% | 1015.6 hPa | 4.32 mm | - | 0 W/m² | - |
| 1777709220 | 11.11° C | 99% | 1015.6 hPa | 4.32 mm | - | 0 W/m² | - |
* Rain latest hour (hover to see other rain measurements)
** Current wind speed in m/s (hover to see current wind gust speed)